sensor_id;sensor_type;location;lat;lon;timestamp;pressure;altitude;pressure_sealevel;temperature;humidity
54920;BME280;63804;53.120;8.764;2022-12-08T00:00:38;100798.31;;;4.83;50.98
54920;BME280;63804;53.120;8.764;2022-12-08T00:03:04;100793.13;;;4.73;51.06
54920;BME280;63804;53.120;8.764;2022-12-08T00:05:30;100802.41;;;4.80;50.84
54920;BME280;63804;53.120;8.764;2022-12-08T00:08:14;100785.19;;;4.76;50.87
54920;BME280;63804;53.120;8.764;2022-12-08T00:10:59;100791.41;;;4.77;50.89
54920;BME280;63804;53.120;8.764;2022-12-08T00:13:24;100778.06;;;4.80;50.81
54920;BME280;63804;53.120;8.764;2022-12-08T00:15:50;100782.88;;;4.83;50.73
54920;BME280;63804;53.120;8.764;2022-12-08T00:18:16;100780.88;;;4.75;50.91
54920;BME280;63804;53.120;8.764;2022-12-08T00:20:41;100769.34;;;4.83;50.69
54920;BME280;63804;53.120;8.764;2022-12-08T00:23:07;100772.25;;;4.87;50.65
54920;BME280;63804;53.120;8.764;2022-12-08T00:25:35;100767.16;;;4.86;50.61
54920;BME280;63804;53.120;8.764;2022-12-08T00:28:01;100772.66;;;4.80;50.75
54920;BME280;63804;53.120;8.764;2022-12-08T00:30:27;100773.59;;;4.76;50.92
54920;BME280;63804;53.120;8.764;2022-12-08T00:32:53;100775.69;;;4.79;50.79
54920;BME280;63804;53.120;8.764;2022-12-08T00:35:18;100769.06;;;4.85;50.76
54920;BME280;63804;53.120;8.764;2022-12-08T00:37:44;100772.06;;;4.83;50.64
54920;BME280;63804;53.120;8.764;2022-12-08T00:40:10;100758.22;;;4.85;50.77
54920;BME280;63804;53.120;8.764;2022-12-08T00:42:36;100748.25;;;4.86;50.66
54920;BME280;63804;53.120;8.764;2022-12-08T00:45:01;100752.22;;;4.88;50.62
54920;BME280;63804;53.120;8.764;2022-12-08T00:47:27;100748.03;;;4.82;50.64
54920;BME280;63804;53.120;8.764;2022-12-08T00:49:53;100731.59;;;4.78;50.82
54920;BME280;63804;53.120;8.764;2022-12-08T00:52:19;100735.03;;;4.84;50.87
54920;BME280;63804;53.120;8.764;2022-12-08T00:54:45;100738.50;;;4.85;50.52
54920;BME280;63804;53.120;8.764;2022-12-08T00:57:10;100737.00;;;4.92;50.68
54920;BME280;63804;53.120;8.764;2022-12-08T00:59:36;100736.59;;;4.85;50.76
54920;BME280;63804;53.120;8.764;2022-12-08T01:02:02;100739.78;;;4.87;50.63
54920;BME280;63804;53.120;8.764;2022-12-08T01:04:27;100738.97;;;5.00;50.54
54920;BME280;63804;53.120;8.764;2022-12-08T01:06:53;100747.00;;;5.06;49.95
54920;BME280;63804;53.120;8.764;2022-12-08T01:09:19;100743.59;;;5.00;50.32
54920;BME280;63804;53.120;8.764;2022-12-08T01:11:45;100752.41;;;4.92;50.40
54920;BME280;63804;53.120;8.764;2022-12-08T01:14:12;100750.59;;;5.01;50.31
54920;BME280;63804;53.120;8.764;2022-12-08T01:16:38;100754.41;;;5.00;50.33
54920;BME280;63804;53.120;8.764;2022-12-08T01:19:05;100750.00;;;5.04;50.36
54920;BME280;63804;53.120;8.764;2022-12-08T01:21:31;100741.00;;;4.95;50.49
54920;BME280;63804;53.120;8.764;2022-12-08T01:23:58;100740.16;;;5.08;50.23
54920;BME280;63804;53.120;8.764;2022-12-08T01:26:25;100743.59;;;5.00;50.32
54920;BME280;63804;53.120;8.764;2022-12-08T01:28:51;100745.19;;;5.01;50.46
54920;BME280;63804;53.120;8.764;2022-12-08T01:31:18;100748.88;;;5.05;50.29
54920;BME280;63804;53.120;8.764;2022-12-08T01:33:45;100749.59;;;4.97;50.69
54920;BME280;63804;53.120;8.764;2022-12-08T01:36:32;100740.75;;;5.05;50.37
54920;BME280;63804;53.120;8.764;2022-12-08T01:38:59;100743.16;;;5.07;50.28
54920;BME280;63804;53.120;8.764;2022-12-08T01:41:29;100734.94;;;5.12;50.18
54920;BME280;63804;53.120;8.764;2022-12-08T01:46:21;100743.03;;;5.12;50.29
54920;BME280;63804;53.120;8.764;2022-12-08T01:48:49;100737.34;;;5.13;50.17
54920;BME280;63804;53.120;8.764;2022-12-08T01:51:16;100735.50;;;5.23;50.14
54920;BME280;63804;53.120;8.764;2022-12-08T01:53:42;100737.69;;;5.20;50.04
54920;BME280;63804;53.120;8.764;2022-12-08T01:56:12;100732.16;;;5.03;50.45
54920;BME280;63804;53.120;8.764;2022-12-08T01:58:46;100733.72;;;5.18;50.19
54920;BME280;63804;53.120;8.764;2022-12-08T02:01:13;100729.09;;;5.18;50.34
54920;BME280;63804;53.120;8.764;2022-12-08T02:06:17;100731.91;;;5.13;50.38
54920;BME280;63804;53.120;8.764;2022-12-08T02:08:44;100728.66;;;5.25;50.17
54920;BME280;63804;53.120;8.764;2022-12-08T02:11:12;100728.28;;;5.32;50.10
54920;BME280;63804;53.120;8.764;2022-12-08T02:13:39;100723.81;;;5.13;50.67
54920;BME280;63804;53.120;8.764;2022-12-08T02:16:39;100722.72;;;5.14;50.58
54920;BME280;63804;53.120;8.764;2022-12-08T02:19:43;100713.47;;;5.15;50.37
54920;BME280;63804;53.120;8.764;2022-12-08T02:22:26;100710.41;;;5.08;50.48
54920;BME280;63804;53.120;8.764;2022-12-08T02:25:06;100708.25;;;5.19;50.46
54920;BME280;63804;53.120;8.764;2022-12-08T02:27:59;100707.94;;;5.20;50.55
54920;BME280;63804;53.120;8.764;2022-12-08T02:33:21;100698.22;;;5.19;50.67
54920;BME280;63804;53.120;8.764;2022-12-08T02:36:06;100699.81;;;5.20;50.90
54920;BME280;63804;53.120;8.764;2022-12-08T02:46:54;100688.25;;;5.06;51.18
54920;BME280;63804;53.120;8.764;2022-12-08T02:49:20;100680.38;;;5.18;50.90
54920;BME280;63804;53.120;8.764;2022-12-08T02:51:46;100684.53;;;5.16;51.07
54920;BME280;63804;53.120;8.764;2022-12-08T02:54:12;100681.63;;;5.12;51.21
54920;BME280;63804;53.120;8.764;2022-12-08T02:57:08;100680.38;;;5.18;51.40
54920;BME280;63804;53.120;8.764;2022-12-08T03:00:04;100679.16;;;5.25;50.99
54920;BME280;63804;53.120;8.764;2022-12-08T03:05:56;100671.13;;;5.33;50.78
54920;BME280;63804;53.120;8.764;2022-12-08T03:08:31;100673.03;;;5.33;50.85
54920;BME280;63804;53.120;8.764;2022-12-08T03:11:03;100662.69;;;5.35;50.79
54920;BME280;63804;53.120;8.764;2022-12-08T03:13:38;100661.50;;;5.27;51.02
54920;BME280;63804;53.120;8.764;2022-12-08T03:16:08;100650.78;;;5.36;50.92
54920;BME280;63804;53.120;8.764;2022-12-08T03:18:39;100653.97;;;5.38;50.65
54920;BME280;63804;53.120;8.764;2022-12-08T03:21:15;100648.97;;;5.31;50.86
54920;BME280;63804;53.120;8.764;2022-12-08T03:23:43;100647.47;;;5.39;50.74
54920;BME280;63804;53.120;8.764;2022-12-08T03:26:18;100645.38;;;5.36;50.72
54920;BME280;63804;53.120;8.764;2022-12-08T03:28:45;100640.44;;;5.38;50.92
54920;BME280;63804;53.120;8.764;2022-12-08T03:31:13;100650.25;;;5.34;50.92
54920;BME280;63804;53.120;8.764;2022-12-08T03:33:42;100640.44;;;5.38;50.80
54920;BME280;63804;53.120;8.764;2022-12-08T03:36:10;100641.66;;;5.32;51.06
54920;BME280;63804;53.120;8.764;2022-12-08T03:38:38;100641.09;;;5.21;51.25
54920;BME280;63804;53.120;8.764;2022-12-08T03:41:05;100643.28;;;5.33;51.10
54920;BME280;63804;53.120;8.764;2022-12-08T03:43:51;100643.63;;;5.40;50.82
54920;BME280;63804;53.120;8.764;2022-12-08T03:46:21;100637.06;;;5.32;50.92
54920;BME280;63804;53.120;8.764;2022-12-08T03:48:48;100644.91;;;5.20;51.27
54920;BME280;63804;53.120;8.764;2022-12-08T03:51:14;100632.06;;;5.26;51.01
54920;BME280;63804;53.120;8.764;2022-12-08T03:53:41;100625.13;;;5.11;51.25
54920;BME280;63804;53.120;8.764;2022-12-08T03:56:18;100626.88;;;5.15;51.04
54920;BME280;63804;53.120;8.764;2022-12-08T03:58:44;100615.44;;;5.18;51.00
54920;BME280;63804;53.120;8.764;2022-12-08T04:01:11;100616.56;;;5.17;51.01
54920;BME280;63804;53.120;8.764;2022-12-08T04:03:37;100609.41;;;5.22;51.04
54920;BME280;63804;53.120;8.764;2022-12-08T04:06:03;100608.88;;;5.33;50.67
54920;BME280;63804;53.120;8.764;2022-12-08T04:08:28;100609.81;;;5.06;51.00
54920;BME280;63804;53.120;8.764;2022-12-08T04:10:54;100611.38;;;5.07;51.22
54920;BME280;63804;53.120;8.764;2022-12-08T04:13:20;100607.31;;;5.18;51.01
54920;BME280;63804;53.120;8.764;2022-12-08T04:15:47;100616.06;;;5.15;50.94
54920;BME280;63804;53.120;8.764;2022-12-08T04:18:13;100596.47;;;5.10;51.07
54920;BME280;63804;53.120;8.764;2022-12-08T04:20:40;100600.81;;;5.19;50.74
54920;BME280;63804;53.120;8.764;2022-12-08T04:23:07;100602.78;;;5.05;51.08
54920;BME280;63804;53.120;8.764;2022-12-08T04:25:33;100601.50;;;5.02;51.30
54920;BME280;63804;53.120;8.764;2022-12-08T04:28:00;100594.41;;;5.15;50.77
54920;BME280;63804;53.120;8.764;2022-12-08T04:30:26;100600.19;;;5.23;50.51
54920;BME280;63804;53.120;8.764;2022-12-08T04:32:51;100600.47;;;5.12;50.84
54920;BME280;63804;53.120;8.764;2022-12-08T04:35:17;100601.25;;;5.13;50.75
54920;BME280;63804;53.120;8.764;2022-12-08T04:37:43;100603.84;;;5.18;50.65
54920;BME280;63804;53.120;8.764;2022-12-08T04:40:10;100594.81;;;5.00;51.08
54920;BME280;63804;53.120;8.764;2022-12-08T04:42:36;100598.19;;;5.06;50.94
54920;BME280;63804;53.120;8.764;2022-12-08T04:45:03;100583.72;;;5.10;50.99
54920;BME280;63804;53.120;8.764;2022-12-08T04:47:29;100589.00;;;5.15;50.79
54920;BME280;63804;53.120;8.764;2022-12-08T04:49:54;100591.97;;;5.05;50.94
54920;BME280;63804;53.120;8.764;2022-12-08T04:52:20;100593.09;;;5.04;51.00
54920;BME280;63804;53.120;8.764;2022-12-08T04:54:46;100596.28;;;5.06;51.06
54920;BME280;63804;53.120;8.764;2022-12-08T04:57:11;100603.97;;;5.13;50.77
54920;BME280;63804;53.120;8.764;2022-12-08T04:59:37;100593.00;;;5.18;50.83
54920;BME280;63804;53.120;8.764;2022-12-08T05:02:03;100590.00;;;5.19;50.65
54920;BME280;63804;53.120;8.764;2022-12-08T05:04:29;100595.06;;;5.12;50.65
54920;BME280;63804;53.120;8.764;2022-12-08T05:06:54;100579.59;;;5.13;50.91
54920;BME280;63804;53.120;8.764;2022-12-08T05:09:20;100578.38;;;5.19;50.72
54920;BME280;63804;53.120;8.764;2022-12-08T05:11:46;100580.19;;;5.01;51.11
54920;BME280;63804;53.120;8.764;2022-12-08T05:14:13;100582.63;;;5.11;50.89
54920;BME280;63804;53.120;8.764;2022-12-08T05:16:40;100582.94;;;5.10;50.86
54920;BME280;63804;53.120;8.764;2022-12-08T05:19:06;100578.63;;;5.09;50.87
54920;BME280;63804;53.120;8.764;2022-12-08T05:21:32;100571.81;;;5.11;51.21
54920;BME280;63804;53.120;8.764;2022-12-08T05:24:04;100577.53;;;5.10;50.79
54920;BME280;63804;53.120;8.764;2022-12-08T05:26:30;100578.31;;;5.10;51.05
54920;BME280;63804;53.120;8.764;2022-12-08T05:28:56;100573.41;;;5.12;50.84
54920;BME280;63804;53.120;8.764;2022-12-08T05:31:22;100576.16;;;5.21;50.87
54920;BME280;63804;53.120;8.764;2022-12-08T05:33:49;100568.03;;;5.21;50.60
54920;BME280;63804;53.120;8.764;2022-12-08T05:36:15;100565.50;;;5.25;50.58
54920;BME280;63804;53.120;8.764;2022-12-08T05:38:42;100556.28;;;5.26;50.62
54920;BME280;63804;53.120;8.764;2022-12-08T05:41:09;100568.59;;;5.32;50.48
54920;BME280;63804;53.120;8.764;2022-12-08T05:43:37;100567.91;;;5.26;50.56
54920;BME280;63804;53.120;8.764;2022-12-08T05:46:03;100572.97;;;5.19;50.74
54920;BME280;63804;53.120;8.764;2022-12-08T05:48:29;100581.03;;;5.33;50.39
54920;BME280;63804;53.120;8.764;2022-12-08T05:50:55;100582.72;;;5.29;50.57
54920;BME280;63804;53.120;8.764;2022-12-08T05:53:21;100588.56;;;5.22;50.68
54920;BME280;63804;53.120;8.764;2022-12-08T05:55:46;100574.03;;;5.09;51.06
54920;BME280;63804;53.120;8.764;2022-12-08T05:58:15;100575.06;;;4.99;51.23
54920;BME280;63804;53.120;8.764;2022-12-08T06:00:41;100577.69;;;5.13;51.09
54920;BME280;63804;53.120;8.764;2022-12-08T06:03:09;100568.69;;;5.27;50.75
54920;BME280;63804;53.120;8.764;2022-12-08T06:05:35;100571.84;;;5.20;50.70
54920;BME280;63804;53.120;8.764;2022-12-08T06:08:01;100574.69;;;5.15;50.99
54920;BME280;63804;53.120;8.764;2022-12-08T06:10:27;100574.81;;;5.32;50.51
54920;BME280;63804;53.120;8.764;2022-12-08T06:12:53;100572.16;;;5.18;50.66
54920;BME280;63804;53.120;8.764;2022-12-08T06:15:18;100583.91;;;5.14;50.67
54920;BME280;63804;53.120;8.764;2022-12-08T06:17:44;100573.59;;;5.16;50.67
54920;BME280;63804;53.120;8.764;2022-12-08T06:20:10;100579.47;;;5.18;50.55
54920;BME280;63804;53.120;8.764;2022-12-08T06:22:36;100580.41;;;5.13;50.73
54920;BME280;63804;53.120;8.764;2022-12-08T06:25:02;100575.38;;;4.98;51.10
54920;BME280;63804;53.120;8.764;2022-12-08T06:27:28;100570.06;;;5.15;50.55
54920;BME280;63804;53.120;8.764;2022-12-08T06:29:53;100580.53;;;5.08;50.80
54920;BME280;63804;53.120;8.764;2022-12-08T06:32:19;100571.31;;;5.09;50.71
54920;BME280;63804;53.120;8.764;2022-12-08T06:34:45;100568.44;;;5.06;50.85
54920;BME280;63804;53.120;8.764;2022-12-08T06:37:10;100578.91;;;5.07;50.58
54920;BME280;63804;53.120;8.764;2022-12-08T06:39:36;100566.38;;;5.11;50.38
54920;BME280;63804;53.120;8.764;2022-12-08T06:42:02;100565.59;;;5.11;50.60
54920;BME280;63804;53.120;8.764;2022-12-08T06:44:46;100552.50;;;5.04;50.56
54920;BME280;63804;53.120;8.764;2022-12-08T06:47:12;100539.00;;;5.04;50.56
54920;BME280;63804;53.120;8.764;2022-12-08T06:49:38;100530.72;;;5.09;50.49
54920;BME280;63804;53.120;8.764;2022-12-08T06:52:03;100522.94;;;5.08;50.60
54920;BME280;63804;53.120;8.764;2022-12-08T06:54:29;100527.31;;;4.95;50.85
54920;BME280;63804;53.120;8.764;2022-12-08T06:56:55;100529.13;;;5.08;50.39
54920;BME280;63804;53.120;8.764;2022-12-08T06:59:20;100547.09;;;5.04;50.20
54920;BME280;63804;53.120;8.764;2022-12-08T07:01:46;100560.63;;;5.04;50.37
54920;BME280;63804;53.120;8.764;2022-12-08T07:04:12;100574.50;;;4.89;50.67
54920;BME280;63804;53.120;8.764;2022-12-08T07:06:38;100587.69;;;5.04;50.38
54920;BME280;63804;53.120;8.764;2022-12-08T07:09:03;100596.28;;;5.06;50.42
54920;BME280;63804;53.120;8.764;2022-12-08T07:11:29;100593.81;;;4.96;50.63
54920;BME280;63804;53.120;8.764;2022-12-08T07:13:55;100596.41;;;5.01;50.56
54920;BME280;63804;53.120;8.764;2022-12-08T07:16:22;100597.94;;;4.93;50.68
54920;BME280;63804;53.120;8.764;2022-12-08T07:18:48;100593.53;;;4.97;50.57
54920;BME280;63804;53.120;8.764;2022-12-08T07:21:14;100601.63;;;4.97;50.68
54920;BME280;63804;53.120;8.764;2022-12-08T07:23:41;100611.22;;;5.04;50.34
54920;BME280;63804;53.120;8.764;2022-12-08T07:26:09;100603.66;;;4.92;50.78
54920;BME280;63804;53.120;8.764;2022-12-08T07:28:37;100603.53;;;4.97;50.72
54920;BME280;63804;53.120;8.764;2022-12-08T07:31:04;100607.38;;;4.82;50.83
54920;BME280;63804;53.120;8.764;2022-12-08T07:33:31;100612.88;;;4.91;50.71
54920;BME280;63804;53.120;8.764;2022-12-08T07:35:59;100609.66;;;4.89;50.62
54920;BME280;63804;53.120;8.764;2022-12-08T07:38:25;100606.34;;;4.92;50.32
54920;BME280;63804;53.120;8.764;2022-12-08T07:40:51;100603.78;;;4.87;50.51
54920;BME280;63804;53.120;8.764;2022-12-08T07:43:17;100605.53;;;4.69;50.83
54920;BME280;63804;53.120;8.764;2022-12-08T07:45:43;100600.00;;;4.74;50.81
54920;BME280;63804;53.120;8.764;2022-12-08T07:48:09;100604.03;;;4.76;50.75
54920;BME280;63804;53.120;8.764;2022-12-08T07:50:35;100605.69;;;4.86;50.42
54920;BME280;63804;53.120;8.764;2022-12-08T07:53:01;100613.63;;;4.82;50.42
54920;BME280;63804;53.120;8.764;2022-12-08T07:55:26;100609.91;;;4.78;50.66
54920;BME280;63804;53.120;8.764;2022-12-08T07:57:53;100605.50;;;4.82;50.26
54920;BME280;63804;53.120;8.764;2022-12-08T08:00:19;100607.44;;;4.68;50.64
54920;BME280;63804;53.120;8.764;2022-12-08T08:02:45;100613.22;;;4.75;50.49
54920;BME280;63804;53.120;8.764;2022-12-08T08:05:11;100609.19;;;4.64;50.71
54920;BME280;63804;53.120;8.764;2022-12-08T08:07:40;100613.78;;;4.63;50.56
54920;BME280;63804;53.120;8.764;2022-12-08T08:10:09;100614.47;;;4.69;50.49
54920;BME280;63804;53.120;8.764;2022-12-08T08:12:36;100611.16;;;4.72;50.19
54920;BME280;63804;53.120;8.764;2022-12-08T08:15:06;100602.94;;;4.77;50.39
54920;BME280;63804;53.120;8.764;2022-12-08T08:17:33;100611.72;;;4.83;50.27
54920;BME280;63804;53.120;8.764;2022-12-08T08:19:59;100606.13;;;4.79;50.21
54920;BME280;63804;53.120;8.764;2022-12-08T08:22:25;100610.47;;;4.67;50.44
54920;BME280;63804;53.120;8.764;2022-12-08T08:24:52;100617.25;;;4.78;50.31
54920;BME280;63804;53.120;8.764;2022-12-08T08:27:18;100624.75;;;4.81;50.07
54920;BME280;63804;53.120;8.764;2022-12-08T08:29:44;100624.50;;;4.91;49.96
54920;BME280;63804;53.120;8.764;2022-12-08T08:32:09;100622.16;;;4.98;49.74
54920;BME280;63804;53.120;8.764;2022-12-08T08:34:35;100628.00;;;4.92;49.72
54920;BME280;63804;53.120;8.764;2022-12-08T08:37:01;100632.44;;;4.88;50.09
54920;BME280;63804;53.120;8.764;2022-12-08T08:39:27;100638.69;;;4.97;49.86
54920;BME280;63804;53.120;8.764;2022-12-08T08:41:54;100639.00;;;4.95;49.71
54920;BME280;63804;53.120;8.764;2022-12-08T08:44:20;100636.50;;;4.99;49.56
54920;BME280;63804;53.120;8.764;2022-12-08T08:46:46;100638.53;;;4.57;50.52
54920;BME280;63804;53.120;8.764;2022-12-08T08:49:11;100638.91;;;4.64;50.43
54920;BME280;63804;53.120;8.764;2022-12-08T08:51:37;100647.16;;;4.59;50.50
54920;BME280;63804;53.120;8.764;2022-12-08T08:54:03;100648.50;;;4.70;50.23
54920;BME280;63804;53.120;8.764;2022-12-08T08:56:29;100654.50;;;4.67;50.21
54920;BME280;63804;53.120;8.764;2022-12-08T08:58:54;100653.59;;;4.86;49.59
54920;BME280;63804;53.120;8.764;2022-12-08T09:01:24;100654.38;;;4.86;49.41
54920;BME280;63804;53.120;8.764;2022-12-08T09:03:50;100655.47;;;4.85;49.56
54920;BME280;63804;53.120;8.764;2022-12-08T09:06:17;100654.13;;;4.96;49.23
54920;BME280;63804;53.120;8.764;2022-12-08T09:08:43;100648.41;;;4.98;49.05
54920;BME280;63804;53.120;8.764;2022-12-08T09:11:09;100651.44;;;4.96;49.14
54920;BME280;63804;53.120;8.764;2022-12-08T09:13:35;100652.59;;;5.04;48.79
54920;BME280;63804;53.120;8.764;2022-12-08T09:16:02;100652.47;;;5.09;48.74
54920;BME280;63804;53.120;8.764;2022-12-08T09:18:29;100650.09;;;5.08;48.74
54920;BME280;63804;53.120;8.764;2022-12-08T09:20:54;100656.66;;;4.93;49.01
54920;BME280;63804;53.120;8.764;2022-12-08T09:23:20;100655.59;;;4.80;49.38
54920;BME280;63804;53.120;8.764;2022-12-08T09:25:46;100659.16;;;4.89;49.25
54920;BME280;63804;53.120;8.764;2022-12-08T09:28:13;100653.88;;;4.84;49.26
54920;BME280;63804;53.120;8.764;2022-12-08T09:30:39;100652.63;;;4.90;49.26
54920;BME280;63804;53.120;8.764;2022-12-08T09:33:05;100663.22;;;5.00;48.84
54920;BME280;63804;53.120;8.764;2022-12-08T09:35:31;100655.63;;;5.02;48.99
54920;BME280;63804;53.120;8.764;2022-12-08T09:37:57;100663.44;;;5.04;48.83
54920;BME280;63804;53.120;8.764;2022-12-08T09:40:23;100662.31;;;5.05;48.88
54920;BME280;63804;53.120;8.764;2022-12-08T09:43:06;100658.19;;;5.08;48.75
54920;BME280;63804;53.120;8.764;2022-12-08T09:45:35;100666.81;;;5.10;48.85
54920;BME280;63804;53.120;8.764;2022-12-08T09:48:09;100660.97;;;5.16;48.68
54920;BME280;63804;53.120;8.764;2022-12-08T09:50:40;100671.91;;;5.34;48.42
54920;BME280;63804;53.120;8.764;2022-12-08T09:53:17;100662.31;;;5.28;48.62
54920;BME280;63804;53.120;8.764;2022-12-08T09:55:51;100656.81;;;5.33;48.48
54920;BME280;63804;53.120;8.764;2022-12-08T10:01:19;100657.09;;;5.31;48.65
54920;BME280;63804;53.120;8.764;2022-12-08T10:03:46;100656.91;;;5.28;48.78
54920;BME280;63804;53.120;8.764;2022-12-08T10:06:20;100662.31;;;5.28;48.79
54920;BME280;63804;53.120;8.764;2022-12-08T10:14:29;100657.78;;;5.14;49.03
54920;BME280;63804;53.120;8.764;2022-12-08T10:17:03;100667.91;;;5.31;48.96
54920;BME280;63804;53.120;8.764;2022-12-08T10:19:32;100660.88;;;5.44;48.55
54920;BME280;63804;53.120;8.764;2022-12-08T10:21:58;100658.38;;;5.34;48.88
54920;BME280;63804;53.120;8.764;2022-12-08T10:24:36;100667.38;;;5.43;48.79
54920;BME280;63804;53.120;8.764;2022-12-08T10:27:10;100662.31;;;5.50;48.60
54920;BME280;63804;53.120;8.764;2022-12-08T10:29:38;100656.50;;;5.20;49.10
54920;BME280;63804;53.120;8.764;2022-12-08T10:32:20;100656.72;;;5.24;49.22
54920;BME280;63804;53.120;8.764;2022-12-08T10:35:04;100666.91;;;5.27;48.96
54920;BME280;63804;53.120;8.764;2022-12-08T10:37:30;100656.91;;;5.28;49.02
54920;BME280;63804;53.120;8.764;2022-12-08T10:40:16;100651.13;;;5.43;48.71
54920;BME280;63804;53.120;8.764;2022-12-08T10:42:47;100649.09;;;5.49;48.66
54920;BME280;63804;53.120;8.764;2022-12-08T10:50:46;100645.72;;;5.43;48.79
54920;BME280;63804;53.120;8.764;2022-12-08T10:53:18;100649.75;;;5.54;48.63
54920;BME280;63804;53.120;8.764;2022-12-08T10:55:49;100655.53;;;5.62;48.49
54920;BME280;63804;53.120;8.764;2022-12-08T10:58:35;100663.03;;;5.65;48.59
54920;BME280;63804;53.120;8.764;2022-12-08T11:03:38;100648.38;;;5.66;48.64
54920;BME280;63804;53.120;8.764;2022-12-08T11:06:11;100654.66;;;5.84;48.19
54920;BME280;63804;53.120;8.764;2022-12-08T11:08:51;100650.88;;;5.93;47.68
54920;BME280;63804;53.120;8.764;2022-12-08T11:11:18;100646.91;;;5.91;48.14
54920;BME280;63804;53.120;8.764;2022-12-08T11:13:47;100654.69;;;5.92;48.19
54920;BME280;63804;53.120;8.764;2022-12-08T11:16:15;100645.94;;;5.96;47.97
54920;BME280;63804;53.120;8.764;2022-12-08T11:18:46;100654.28;;;6.08;47.66
54920;BME280;63804;53.120;8.764;2022-12-08T11:21:19;100650.56;;;5.95;47.87
54920;BME280;63804;53.120;8.764;2022-12-08T11:23:47;100658.22;;;5.93;48.00
54920;BME280;63804;53.120;8.764;2022-12-08T11:26:29;100645.91;;;5.78;48.00
54920;BME280;63804;53.120;8.764;2022-12-08T11:28:56;100646.81;;;5.73;48.27
54920;BME280;63804;53.120;8.764;2022-12-08T11:31:46;100643.63;;;5.71;48.41
54920;BME280;63804;53.120;8.764;2022-12-08T11:34:31;100640.38;;;5.61;48.55
54920;BME280;63804;53.120;8.764;2022-12-08T11:36:58;100635.97;;;5.65;48.43
54920;BME280;63804;53.120;8.764;2022-12-08T11:39:28;100631.34;;;5.74;48.35
54920;BME280;63804;53.120;8.764;2022-12-08T11:41:56;100637.75;;;5.69;48.46
54920;BME280;63804;53.120;8.764;2022-12-08T11:47:14;100639.69;;;5.78;48.23
54920;BME280;63804;53.120;8.764;2022-12-08T11:49:43;100632.00;;;5.71;48.69
54920;BME280;63804;53.120;8.764;2022-12-08T11:52:21;100632.69;;;5.85;48.19
54920;BME280;63804;53.120;8.764;2022-12-08T11:57:45;100633.59;;;6.21;48.04
54920;BME280;63804;53.120;8.764;2022-12-08T12:00:15;100635.50;;;6.20;48.07
54920;BME280;63804;53.120;8.764;2022-12-08T12:02:46;100638.97;;;6.03;48.02
54920;BME280;63804;53.120;8.764;2022-12-08T12:21:14;100619.91;;;5.77;48.07
54920;BME280;63804;53.120;8.764;2022-12-08T12:23:55;100628.25;;;5.89;48.04
54920;BME280;63804;53.120;8.764;2022-12-08T12:26:25;100625.41;;;5.94;47.79
54920;BME280;63804;53.120;8.764;2022-12-08T12:28:59;100623.97;;;5.97;47.61
54920;BME280;63804;53.120;8.764;2022-12-08T12:31:32;100627.97;;;6.00;47.74
54920;BME280;63804;53.120;8.764;2022-12-08T12:34:06;100623.16;;;5.97;47.73
54920;BME280;63804;53.120;8.764;2022-12-08T12:36:48;100629.59;;;6.09;47.43
54920;BME280;63804;53.120;8.764;2022-12-08T12:39:17;100628.44;;;6.02;47.38
54920;BME280;63804;53.120;8.764;2022-12-08T12:41:51;100623.84;;;6.11;47.22
54920;BME280;63804;53.120;8.764;2022-12-08T13:02:25;100626.34;;;5.99;46.91
54920;BME280;63804;53.120;8.764;2022-12-08T13:04:53;100627.59;;;5.92;46.57
54920;BME280;63804;53.120;8.764;2022-12-08T13:07:23;100627.50;;;6.06;47.09
54920;BME280;63804;53.120;8.764;2022-12-08T13:09:59;100623.34;;;6.00;47.29
54920;BME280;63804;53.120;8.764;2022-12-08T13:12:25;100619.88;;;6.17;46.75
54920;BME280;63804;53.120;8.764;2022-12-08T13:14:57;100615.91;;;6.23;46.30
54920;BME280;63804;53.120;8.764;2022-12-08T13:17:32;100616.38;;;6.25;46.56
54920;BME280;63804;53.120;8.764;2022-12-08T13:20:00;100617.06;;;6.40;46.18
54920;BME280;63804;53.120;8.764;2022-12-08T13:22:48;100622.00;;;6.38;46.03
54920;BME280;63804;53.120;8.764;2022-12-08T13:25:44;100620.56;;;6.40;45.75
54920;BME280;63804;53.120;8.764;2022-12-08T13:30:46;100622.94;;;6.50;45.76
54920;BME280;63804;53.120;8.764;2022-12-08T13:33:39;100622.94;;;6.59;45.47
54920;BME280;63804;53.120;8.764;2022-12-08T13:36:22;100626.47;;;6.51;45.37
54920;BME280;63804;53.120;8.764;2022-12-08T13:38:54;100627.44;;;6.46;45.84
54920;BME280;63804;53.120;8.764;2022-12-08T13:41:27;100618.19;;;6.56;45.67
54920;BME280;63804;53.120;8.764;2022-12-08T13:43:59;100635.25;;;6.65;45.38
54920;BME280;63804;53.120;8.764;2022-12-08T13:46:33;100624.09;;;6.58;45.63
54920;BME280;63804;53.120;8.764;2022-12-08T13:49:01;100622.47;;;6.66;45.70
54920;BME280;63804;53.120;8.764;2022-12-08T13:51:37;100625.34;;;6.43;46.11
54920;BME280;63804;53.120;8.764;2022-12-08T13:56:42;100621.34;;;6.41;46.19
54920;BME280;63804;53.120;8.764;2022-12-08T14:01:45;100621.81;;;6.34;46.05
54920;BME280;63804;53.120;8.764;2022-12-08T14:04:18;100625.91;;;6.14;46.04
54920;BME280;63804;53.120;8.764;2022-12-08T14:06:48;100630.09;;;6.20;45.80
54920;BME280;63804;53.120;8.764;2022-12-08T14:09:20;100638.84;;;6.17;45.50
54920;BME280;63804;53.120;8.764;2022-12-08T14:11:59;100635.28;;;5.99;45.59
54920;BME280;63804;53.120;8.764;2022-12-08T14:14:44;100638.19;;;6.03;45.59
54920;BME280;63804;53.120;8.764;2022-12-08T14:17:13;100645.63;;;5.97;45.98
54920;BME280;63804;53.120;8.764;2022-12-08T14:19:42;100646.31;;;6.03;45.69
54920;BME280;63804;53.120;8.764;2022-12-08T14:22:11;100642.13;;;5.97;45.90
54920;BME280;63804;53.120;8.764;2022-12-08T14:24:38;100651.69;;;5.94;45.99
54920;BME280;63804;53.120;8.764;2022-12-08T14:27:06;100649.28;;;5.92;45.72
54920;BME280;63804;53.120;8.764;2022-12-08T14:29:59;100652.13;;;5.87;45.60
54920;BME280;63804;53.120;8.764;2022-12-08T14:37:42;100660.66;;;6.03;45.56
54920;BME280;63804;53.120;8.764;2022-12-08T14:42:47;100660.97;;;6.02;45.49